sensor_id;sensor_type;location;lat;lon;timestamp;temperature;humidity
42187;DHT22;27858;51.414;0.018;2023-01-15T00:01:55;6.40;1.00
42187;DHT22;27858;51.414;0.018;2023-01-15T00:04:21;6.50;1.00
42187;DHT22;27858;51.414;0.018;2023-01-15T00:06:48;6.50;1.00
42187;DHT22;27858;51.414;0.018;2023-01-15T00:09:16;6.40;1.00
42187;DHT22;27858;51.414;0.018;2023-01-15T00:11:42;6.40;1.00
42187;DHT22;27858;51.414;0.018;2023-01-15T00:14:09;6.40;1.00
42187;DHT22;27858;51.414;0.018;2023-01-15T00:16:37;6.40;1.00
42187;DHT22;27858;51.414;0.018;2023-01-15T00:19:08;6.40;1.00
42187;DHT22;27858;51.414;0.018;2023-01-15T00:21:36;6.30;1.00
42187;DHT22;27858;51.414;0.018;2023-01-15T00:24:04;6.30;1.00
42187;DHT22;27858;51.414;0.018;2023-01-15T00:26:49;6.30;1.00
42187;DHT22;27858;51.414;0.018;2023-01-15T00:29:34;6.30;1.00
42187;DHT22;27858;51.414;0.018;2023-01-15T00:32:04;6.30;1.00
42187;DHT22;27858;51.414;0.018;2023-01-15T00:34:32;6.30;1.00
42187;DHT22;27858;51.414;0.018;2023-01-15T00:37:00;6.30;1.00
42187;DHT22;27858;51.414;0.018;2023-01-15T00:39:27;6.20;1.00
42187;DHT22;27858;51.414;0.018;2023-01-15T00:41:54;6.20;1.00
42187;DHT22;27858;51.414;0.018;2023-01-15T00:44:22;6.20;1.00
42187;DHT22;27858;51.414;0.018;2023-01-15T00:46:48;6.20;1.00
42187;DHT22;27858;51.414;0.018;2023-01-15T00:49:16;6.20;1.00
42187;DHT22;27858;51.414;0.018;2023-01-15T00:51:42;6.20;1.00
42187;DHT22;27858;51.414;0.018;2023-01-15T00:54:09;6.20;1.00
42187;DHT22;27858;51.414;0.018;2023-01-15T00:56:36;6.10;1.00
42187;DHT22;27858;51.414;0.018;2023-01-15T00:59:04;6.20;1.00
42187;DHT22;27858;51.414;0.018;2023-01-15T01:01:31;6.10;1.00
42187;DHT22;27858;51.414;0.018;2023-01-15T01:03:58;6.10;1.00
42187;DHT22;27858;51.414;0.018;2023-01-15T01:06:26;6.10;1.00
42187;DHT22;27858;51.414;0.018;2023-01-15T01:08:53;6.10;1.00
42187;DHT22;27858;51.414;0.018;2023-01-15T01:11:23;6.00;1.00
42187;DHT22;27858;51.414;0.018;2023-01-15T01:13:53;5.90;1.00
42187;DHT22;27858;51.414;0.018;2023-01-15T01:16:29;5.90;1.00
42187;DHT22;27858;51.414;0.018;2023-01-15T01:18:58;5.90;1.00
42187;DHT22;27858;51.414;0.018;2023-01-15T01:21:26;5.90;1.00
42187;DHT22;27858;51.414;0.018;2023-01-15T01:23:53;5.80;1.00
42187;DHT22;27858;51.414;0.018;2023-01-15T01:26:20;5.80;1.00
42187;DHT22;27858;51.414;0.018;2023-01-15T01:28:51;5.90;1.00
42187;DHT22;27858;51.414;0.018;2023-01-15T01:31:19;5.90;1.00
42187;DHT22;27858;51.414;0.018;2023-01-15T01:33:54;5.90;1.00
42187;DHT22;27858;51.414;0.018;2023-01-15T01:36:30;5.90;1.00
42187;DHT22;27858;51.414;0.018;2023-01-15T01:38:58;5.90;1.00
42187;DHT22;27858;51.414;0.018;2023-01-15T01:41:25;5.80;1.00
42187;DHT22;27858;51.414;0.018;2023-01-15T01:44:01;5.70;1.00
42187;DHT22;27858;51.414;0.018;2023-01-15T01:46:31;5.70;1.00
42187;DHT22;27858;51.414;0.018;2023-01-15T01:49:19;5.70;1.00
42187;DHT22;27858;51.414;0.018;2023-01-15T01:51:51;5.70;1.00
42187;DHT22;27858;51.414;0.018;2023-01-15T01:54:23;5.70;1.00
42187;DHT22;27858;51.414;0.018;2023-01-15T01:56:51;5.60;1.00
42187;DHT22;27858;51.414;0.018;2023-01-15T01:59:18;5.60;3.20
42187;DHT22;27858;51.414;0.018;2023-01-15T02:01:47;5.60;6.80
42187;DHT22;27858;51.414;0.018;2023-01-15T02:04:15;5.60;10.90
42187;DHT22;27858;51.414;0.018;2023-01-15T02:06:43;5.60;13.80
42187;DHT22;27858;51.414;0.018;2023-01-15T02:09:10;5.50;13.70
42187;DHT22;27858;51.414;0.018;2023-01-15T02:11:37;5.60;12.50
42187;DHT22;27858;51.414;0.018;2023-01-15T02:14:23;5.50;16.30
42187;DHT22;27858;51.414;0.018;2023-01-15T02:17:00;5.50;17.10
42187;DHT22;27858;51.414;0.018;2023-01-15T02:25:18;5.40;26.10
42187;DHT22;27858;51.414;0.018;2023-01-15T02:27:50;5.50;28.30
42187;DHT22;27858;51.414;0.018;2023-01-15T02:33:12;5.40;25.50
42187;DHT22;27858;51.414;0.018;2023-01-15T02:35:44;5.40;24.60
42187;DHT22;27858;51.414;0.018;2023-01-15T02:38:17;5.40;24.90
42187;DHT22;27858;51.414;0.018;2023-01-15T02:40:46;5.40;26.30
42187;DHT22;27858;51.414;0.018;2023-01-15T02:43:15;5.40;23.60
42187;DHT22;27858;51.414;0.018;2023-01-15T02:45:45;5.40;20.70
42187;DHT22;27858;51.414;0.018;2023-01-15T02:48:16;5.40;18.40
42187;DHT22;27858;51.414;0.018;2023-01-15T02:50:48;5.40;15.50
42187;DHT22;27858;51.414;0.018;2023-01-15T02:53:23;5.40;9.10
42187;DHT22;27858;51.414;0.018;2023-01-15T02:55:53;5.40;3.30
42187;DHT22;27858;51.414;0.018;2023-01-15T02:58:25;5.40;1.00
42187;DHT22;27858;51.414;0.018;2023-01-15T03:00:55;5.40;1.00
42187;DHT22;27858;51.414;0.018;2023-01-15T03:04:06;5.40;1.00
42187;DHT22;27858;51.414;0.018;2023-01-15T03:06:31;5.30;1.00
42187;DHT22;27858;51.414;0.018;2023-01-15T03:09:02;5.30;1.00
42187;DHT22;27858;51.414;0.018;2023-01-15T03:11:29;5.40;1.00
42187;DHT22;27858;51.414;0.018;2023-01-15T03:14:02;5.30;1.00
42187;DHT22;27858;51.414;0.018;2023-01-15T03:16:35;5.30;1.00
42187;DHT22;27858;51.414;0.018;2023-01-15T03:19:28;5.30;1.00
42187;DHT22;27858;51.414;0.018;2023-01-15T03:22:33;5.30;1.00
42187;DHT22;27858;51.414;0.018;2023-01-15T03:25:13;5.30;1.00
42187;DHT22;27858;51.414;0.018;2023-01-15T03:27:41;5.30;1.00
42187;DHT22;27858;51.414;0.018;2023-01-15T03:30:11;5.30;1.00
42187;DHT22;27858;51.414;0.018;2023-01-15T03:32:38;5.30;1.00
42187;DHT22;27858;51.414;0.018;2023-01-15T03:35:07;5.30;1.00
42187;DHT22;27858;51.414;0.018;2023-01-15T03:37:56;5.20;1.00
42187;DHT22;27858;51.414;0.018;2023-01-15T03:40:22;5.40;1.00
42187;DHT22;27858;51.414;0.018;2023-01-15T03:42:54;5.30;1.00
42187;DHT22;27858;51.414;0.018;2023-01-15T03:45:43;5.30;1.00
42187;DHT22;27858;51.414;0.018;2023-01-15T03:48:26;5.30;1.00
42187;DHT22;27858;51.414;0.018;2023-01-15T03:51:18;5.20;1.00
42187;DHT22;27858;51.414;0.018;2023-01-15T03:53:50;5.20;1.00
42187;DHT22;27858;51.414;0.018;2023-01-15T03:56:35;5.20;1.00
42187;DHT22;27858;51.414;0.018;2023-01-15T03:59:12;5.20;1.00
42187;DHT22;27858;51.414;0.018;2023-01-15T04:01:43;5.20;1.00
42187;DHT22;27858;51.414;0.018;2023-01-15T04:04:12;5.20;1.00
42187;DHT22;27858;51.414;0.018;2023-01-15T04:06:41;5.20;1.00
42187;DHT22;27858;51.414;0.018;2023-01-15T04:09:10;5.20;1.00
42187;DHT22;27858;51.414;0.018;2023-01-15T04:11:38;5.20;1.00
42187;DHT22;27858;51.414;0.018;2023-01-15T04:14:05;5.10;1.00
42187;DHT22;27858;51.414;0.018;2023-01-15T04:16:33;5.20;1.00
42187;DHT22;27858;51.414;0.018;2023-01-15T04:19:00;5.20;1.00
42187;DHT22;27858;51.414;0.018;2023-01-15T04:21:27;5.20;1.00
42187;DHT22;27858;51.414;0.018;2023-01-15T04:23:54;5.10;1.00
42187;DHT22;27858;51.414;0.018;2023-01-15T04:26:21;5.00;1.00
42187;DHT22;27858;51.414;0.018;2023-01-15T04:28:48;5.10;1.00
42187;DHT22;27858;51.414;0.018;2023-01-15T04:31:15;5.10;1.00
42187;DHT22;27858;51.414;0.018;2023-01-15T04:33:42;5.30;1.00
42187;DHT22;27858;51.414;0.018;2023-01-15T04:36:09;5.20;1.00
42187;DHT22;27858;51.414;0.018;2023-01-15T04:38:38;5.20;1.00
42187;DHT22;27858;51.414;0.018;2023-01-15T04:41:05;5.10;1.00
42187;DHT22;27858;51.414;0.018;2023-01-15T04:43:50;5.10;1.00
42187;DHT22;27858;51.414;0.018;2023-01-15T04:46:44;5.20;1.00
42187;DHT22;27858;51.414;0.018;2023-01-15T04:49:16;5.10;1.00
42187;DHT22;27858;51.414;0.018;2023-01-15T04:51:43;5.10;1.00
42187;DHT22;27858;51.414;0.018;2023-01-15T04:54:12;5.00;1.00
42187;DHT22;27858;51.414;0.018;2023-01-15T04:56:42;5.00;1.00
42187;DHT22;27858;51.414;0.018;2023-01-15T04:59:09;5.00;1.00
42187;DHT22;27858;51.414;0.018;2023-01-15T05:01:36;5.00;1.00
42187;DHT22;27858;51.414;0.018;2023-01-15T05:04:03;5.00;1.00
42187;DHT22;27858;51.414;0.018;2023-01-15T05:06:31;4.90;1.00
42187;DHT22;27858;51.414;0.018;2023-01-15T05:08:59;4.90;1.00
42187;DHT22;27858;51.414;0.018;2023-01-15T05:11:26;4.90;1.00
42187;DHT22;27858;51.414;0.018;2023-01-15T05:13:53;5.00;1.00
42187;DHT22;27858;51.414;0.018;2023-01-15T05:16:25;4.90;1.00
42187;DHT22;27858;51.414;0.018;2023-01-15T05:18:55;4.90;1.00
42187;DHT22;27858;51.414;0.018;2023-01-15T05:21:33;4.90;1.00
42187;DHT22;27858;51.414;0.018;2023-01-15T05:24:02;4.90;1.00
42187;DHT22;27858;51.414;0.018;2023-01-15T05:26:31;5.00;1.00
42187;DHT22;27858;51.414;0.018;2023-01-15T05:28:58;5.00;1.00
42187;DHT22;27858;51.414;0.018;2023-01-15T05:31:26;5.00;1.00
42187;DHT22;27858;51.414;0.018;2023-01-15T05:33:55;5.00;1.00
42187;DHT22;27858;51.414;0.018;2023-01-15T05:36:24;5.00;1.00
42187;DHT22;27858;51.414;0.018;2023-01-15T05:38:52;5.10;1.00
42187;DHT22;27858;51.414;0.018;2023-01-15T05:41:21;5.10;1.00
42187;DHT22;27858;51.414;0.018;2023-01-15T05:44:09;5.10;1.00
42187;DHT22;27858;51.414;0.018;2023-01-15T05:46:38;5.20;1.00
42187;DHT22;27858;51.414;0.018;2023-01-15T05:49:07;5.20;1.00
42187;DHT22;27858;51.414;0.018;2023-01-15T05:51:35;5.20;1.00
42187;DHT22;27858;51.414;0.018;2023-01-15T05:54:03;5.30;1.00
42187;DHT22;27858;51.414;0.018;2023-01-15T05:56:30;5.30;1.00
42187;DHT22;27858;51.414;0.018;2023-01-15T05:58:57;5.30;1.00
42187;DHT22;27858;51.414;0.018;2023-01-15T06:01:24;5.40;1.00
42187;DHT22;27858;51.414;0.018;2023-01-15T06:03:50;5.40;1.00
42187;DHT22;27858;51.414;0.018;2023-01-15T06:06:19;5.50;1.00
42187;DHT22;27858;51.414;0.018;2023-01-15T06:08:46;5.50;1.00
42187;DHT22;27858;51.414;0.018;2023-01-15T06:11:12;5.50;1.00
42187;DHT22;27858;51.414;0.018;2023-01-15T06:13:39;5.60;1.00
42187;DHT22;27858;51.414;0.018;2023-01-15T06:16:07;5.50;1.00
42187;DHT22;27858;51.414;0.018;2023-01-15T06:18:39;5.50;1.00
42187;DHT22;27858;51.414;0.018;2023-01-15T06:21:08;5.60;1.00
42187;DHT22;27858;51.414;0.018;2023-01-15T06:23:36;5.60;1.00
42187;DHT22;27858;51.414;0.018;2023-01-15T06:26:06;5.60;1.00
42187;DHT22;27858;51.414;0.018;2023-01-15T06:28:33;5.60;1.00
42187;DHT22;27858;51.414;0.018;2023-01-15T06:31:03;5.60;1.00
42187;DHT22;27858;51.414;0.018;2023-01-15T06:33:30;5.60;1.00
42187;DHT22;27858;51.414;0.018;2023-01-15T06:35:57;5.60;1.00
42187;DHT22;27858;51.414;0.018;2023-01-15T06:38:24;5.60;1.00
42187;DHT22;27858;51.414;0.018;2023-01-15T06:40:50;5.50;1.00
42187;DHT22;27858;51.414;0.018;2023-01-15T06:43:17;5.50;1.00
42187;DHT22;27858;51.414;0.018;2023-01-15T06:46:03;5.50;1.00
42187;DHT22;27858;51.414;0.018;2023-01-15T06:48:48;5.50;1.00
42187;DHT22;27858;51.414;0.018;2023-01-15T06:51:15;5.40;1.00
42187;DHT22;27858;51.414;0.018;2023-01-15T06:53:45;5.40;1.00
42187;DHT22;27858;51.414;0.018;2023-01-15T06:56:13;5.30;1.00
42187;DHT22;27858;51.414;0.018;2023-01-15T06:58:41;5.40;1.00
42187;DHT22;27858;51.414;0.018;2023-01-15T07:01:09;5.40;1.00
42187;DHT22;27858;51.414;0.018;2023-01-15T07:03:36;5.30;1.00
42187;DHT22;27858;51.414;0.018;2023-01-15T07:06:07;5.40;1.00
42187;DHT22;27858;51.414;0.018;2023-01-15T07:08:35;5.40;1.00
42187;DHT22;27858;51.414;0.018;2023-01-15T07:11:03;5.40;1.00
42187;DHT22;27858;51.414;0.018;2023-01-15T07:13:30;5.30;1.00
42187;DHT22;27858;51.414;0.018;2023-01-15T07:15:59;5.30;1.00
42187;DHT22;27858;51.414;0.018;2023-01-15T07:18:28;5.40;1.00
42187;DHT22;27858;51.414;0.018;2023-01-15T07:20:56;5.40;1.00
42187;DHT22;27858;51.414;0.018;2023-01-15T07:23:24;5.30;1.00
42187;DHT22;27858;51.414;0.018;2023-01-15T07:25:52;5.40;1.00
42187;DHT22;27858;51.414;0.018;2023-01-15T07:28:20;5.50;1.00
42187;DHT22;27858;51.414;0.018;2023-01-15T07:30:47;5.40;1.00
42187;DHT22;27858;51.414;0.018;2023-01-15T07:33:14;5.50;1.00
42187;DHT22;27858;51.414;0.018;2023-01-15T07:35:44;5.50;1.00
42187;DHT22;27858;51.414;0.018;2023-01-15T07:38:10;5.40;1.00
42187;DHT22;27858;51.414;0.018;2023-01-15T07:40:37;5.40;1.00
42187;DHT22;27858;51.414;0.018;2023-01-15T07:43:04;5.40;1.00
42187;DHT22;27858;51.414;0.018;2023-01-15T07:45:49;5.40;1.00
42187;DHT22;27858;51.414;0.018;2023-01-15T07:48:35;5.50;1.00
42187;DHT22;27858;51.414;0.018;2023-01-15T07:51:20;5.50;1.00
42187;DHT22;27858;51.414;0.018;2023-01-15T07:53:47;5.50;1.00
42187;DHT22;27858;51.414;0.018;2023-01-15T07:56:14;5.50;1.00
42187;DHT22;27858;51.414;0.018;2023-01-15T07:58:41;5.50;1.00
42187;DHT22;27858;51.414;0.018;2023-01-15T08:01:10;5.50;1.00
42187;DHT22;27858;51.414;0.018;2023-01-15T08:03:37;5.50;1.00
42187;DHT22;27858;51.414;0.018;2023-01-15T08:06:04;5.60;1.00
42187;DHT22;27858;51.414;0.018;2023-01-15T08:08:30;5.70;1.00
42187;DHT22;27858;51.414;0.018;2023-01-15T08:11:00;5.70;1.00
42187;DHT22;27858;51.414;0.018;2023-01-15T08:13:46;5.80;1.00
42187;DHT22;27858;51.414;0.018;2023-01-15T08:16:34;5.80;1.00
42187;DHT22;27858;51.414;0.018;2023-01-15T08:19:02;5.90;1.00
42187;DHT22;27858;51.414;0.018;2023-01-15T08:21:29;5.90;1.00
42187;DHT22;27858;51.414;0.018;2023-01-15T08:23:56;5.90;1.00
42187;DHT22;27858;51.414;0.018;2023-01-15T08:26:22;6.00;1.00
42187;DHT22;27858;51.414;0.018;2023-01-15T08:28:49;6.00;1.00
42187;DHT22;27858;51.414;0.018;2023-01-15T08:31:16;6.00;1.00
42187;DHT22;27858;51.414;0.018;2023-01-15T08:33:43;6.00;1.00
42187;DHT22;27858;51.414;0.018;2023-01-15T08:36:09;6.00;1.00
42187;DHT22;27858;51.414;0.018;2023-01-15T08:38:36;6.00;1.00
42187;DHT22;27858;51.414;0.018;2023-01-15T08:41:03;5.90;1.00
42187;DHT22;27858;51.414;0.018;2023-01-15T08:43:31;5.90;1.00
42187;DHT22;27858;51.414;0.018;2023-01-15T08:46:03;5.90;1.00
42187;DHT22;27858;51.414;0.018;2023-01-15T08:48:30;6.00;1.00
42187;DHT22;27858;51.414;0.018;2023-01-15T08:50:58;6.00;1.00
42187;DHT22;27858;51.414;0.018;2023-01-15T08:53:24;6.00;1.00
42187;DHT22;27858;51.414;0.018;2023-01-15T08:55:51;6.00;1.00
42187;DHT22;27858;51.414;0.018;2023-01-15T08:58:18;6.10;1.00
42187;DHT22;27858;51.414;0.018;2023-01-15T09:00:45;6.10;1.00
42187;DHT22;27858;51.414;0.018;2023-01-15T09:03:12;6.20;1.00
42187;DHT22;27858;51.414;0.018;2023-01-15T09:05:39;6.20;1.00
42187;DHT22;27858;51.414;0.018;2023-01-15T09:08:06;6.20;1.00
42187;DHT22;27858;51.414;0.018;2023-01-15T09:10:33;6.30;1.00
42187;DHT22;27858;51.414;0.018;2023-01-15T09:13:01;6.30;1.00
42187;DHT22;27858;51.414;0.018;2023-01-15T09:15:29;6.30;1.00
42187;DHT22;27858;51.414;0.018;2023-01-15T09:17:57;6.40;1.00
42187;DHT22;27858;51.414;0.018;2023-01-15T09:20:24;6.40;1.00
42187;DHT22;27858;51.414;0.018;2023-01-15T09:22:51;6.40;1.00
42187;DHT22;27858;51.414;0.018;2023-01-15T09:25:18;6.50;1.00
42187;DHT22;27858;51.414;0.018;2023-01-15T09:27:46;6.60;1.00
42187;DHT22;27858;51.414;0.018;2023-01-15T09:30:19;6.60;1.00
42187;DHT22;27858;51.414;0.018;2023-01-15T09:32:47;6.70;1.00
42187;DHT22;27858;51.414;0.018;2023-01-15T09:35:14;6.70;1.00
42187;DHT22;27858;51.414;0.018;2023-01-15T09:37:41;6.70;1.00
42187;DHT22;27858;51.414;0.018;2023-01-15T09:40:21;6.90;1.00
42187;DHT22;27858;51.414;0.018;2023-01-15T09:43:01;6.80;1.00
42187;DHT22;27858;51.414;0.018;2023-01-15T09:45:36;6.90;1.00
42187;DHT22;27858;51.414;0.018;2023-01-15T09:48:24;6.80;1.00
42187;DHT22;27858;51.414;0.018;2023-01-15T09:51:08;6.80;1.00
42187;DHT22;27858;51.414;0.018;2023-01-15T09:56:35;6.90;1.00
42187;DHT22;27858;51.414;0.018;2023-01-15T09:59:15;7.00;1.00
42187;DHT22;27858;51.414;0.018;2023-01-15T10:01:44;6.90;1.00
42187;DHT22;27858;51.414;0.018;2023-01-15T10:04:51;7.00;1.00
42187;DHT22;27858;51.414;0.018;2023-01-15T10:10:02;7.00;1.00
42187;DHT22;27858;51.414;0.018;2023-01-15T10:12:31;7.10;1.00
42187;DHT22;27858;51.414;0.018;2023-01-15T10:25:35;7.20;1.00
42187;DHT22;27858;51.414;0.018;2023-01-15T10:28:14;7.10;1.00
42187;DHT22;27858;51.414;0.018;2023-01-15T10:30:48;7.20;1.00
42187;DHT22;27858;51.414;0.018;2023-01-15T10:36:09;7.30;1.00
42187;DHT22;27858;51.414;0.018;2023-01-15T10:41:22;7.30;1.00
42187;DHT22;27858;51.414;0.018;2023-01-15T10:44:02;7.30;1.00
42187;DHT22;27858;51.414;0.018;2023-01-15T10:46:35;7.40;1.00
42187;DHT22;27858;51.414;0.018;2023-01-15T10:49:15;7.40;1.00
42187;DHT22;27858;51.414;0.018;2023-01-15T10:54:40;7.40;1.00
42187;DHT22;27858;51.414;0.018;2023-01-15T10:57:19;7.50;1.00
42187;DHT22;27858;51.414;0.018;2023-01-15T10:59:58;7.50;1.00
42187;DHT22;27858;51.414;0.018;2023-01-15T11:02:33;7.50;1.00
42187;DHT22;27858;51.414;0.018;2023-01-15T11:05:04;7.60;1.00
42187;DHT22;27858;51.414;0.018;2023-01-15T11:07:37;7.60;1.00
42187;DHT22;27858;51.414;0.018;2023-01-15T11:10:21;7.60;1.00
42187;DHT22;27858;51.414;0.018;2023-01-15T11:12:53;7.60;1.00
42187;DHT22;27858;51.414;0.018;2023-01-15T11:15:40;7.60;1.00
42187;DHT22;27858;51.414;0.018;2023-01-15T11:18:33;7.60;1.00
42187;DHT22;27858;51.414;0.018;2023-01-15T11:21:21;7.60;1.00
42187;DHT22;27858;51.414;0.018;2023-01-15T11:23:49;7.70;1.00
42187;DHT22;27858;51.414;0.018;2023-01-15T11:26:21;7.70;1.00
42187;DHT22;27858;51.414;0.018;2023-01-15T11:28:48;7.70;1.00
42187;DHT22;27858;51.414;0.018;2023-01-15T11:31:16;7.80;1.00
42187;DHT22;27858;51.414;0.018;2023-01-15T11:33:44;7.80;1.00
42187;DHT22;27858;51.414;0.018;2023-01-15T11:36:26;7.90;1.00
42187;DHT22;27858;51.414;0.018;2023-01-15T11:38:53;8.00;1.00
42187;DHT22;27858;51.414;0.018;2023-01-15T11:44:13;8.00;1.00
42187;DHT22;27858;51.414;0.018;2023-01-15T11:46:59;7.90;1.00
42187;DHT22;27858;51.414;0.018;2023-01-15T11:49:54;7.90;1.00
42187;DHT22;27858;51.414;0.018;2023-01-15T11:52:47;7.90;1.00
42187;DHT22;27858;51.414;0.018;2023-01-15T11:55:21;7.90;1.00
42187;DHT22;27858;51.414;0.018;2023-01-15T11:57:50;8.00;1.00
42187;DHT22;27858;51.414;0.018;2023-01-15T12:00:29;8.00;99.90
42187;DHT22;27858;51.414;0.018;2023-01-15T12:03:16;8.10;99.90
42187;DHT22;27858;51.414;0.018;2023-01-15T12:05:46;8.10;99.90
42187;DHT22;27858;51.414;0.018;2023-01-15T12:11:16;8.10;99.90
42187;DHT22;27858;51.414;0.018;2023-01-15T12:14:16;8.10;99.90
42187;DHT22;27858;51.414;0.018;2023-01-15T12:17:08;8.00;99.90
42187;DHT22;27858;51.414;0.018;2023-01-15T12:22:27;8.10;99.90
42187;DHT22;27858;51.414;0.018;2023-01-15T12:30:25;8.30;99.90
42187;DHT22;27858;51.414;0.018;2023-01-15T12:33:10;8.20;99.90
42187;DHT22;27858;51.414;0.018;2023-01-15T12:36:02;8.30;99.90
42187;DHT22;27858;51.414;0.018;2023-01-15T12:38:45;8.30;99.90
42187;DHT22;27858;51.414;0.018;2023-01-15T12:41:22;8.30;99.90
42187;DHT22;27858;51.414;0.018;2023-01-15T12:43:54;8.30;99.90
42187;DHT22;27858;51.414;0.018;2023-01-15T12:46:43;8.20;99.90
42187;DHT22;27858;51.414;0.018;2023-01-15T12:50:02;8.30;99.90
42187;DHT22;27858;51.414;0.018;2023-01-15T12:52:17;8.30;99.90
42187;DHT22;27858;51.414;0.018;2023-01-15T12:57:41;8.30;99.90
42187;DHT22;27858;51.414;0.018;2023-01-15T13:05:57;8.30;99.90
42187;DHT22;27858;51.414;0.018;2023-01-15T13:11:11;8.30;99.90
42187;DHT22;27858;51.414;0.018;2023-01-15T13:13:42;8.30;99.90
42187;DHT22;27858;51.414;0.018;2023-01-15T13:16:32;8.30;99.90
42187;DHT22;27858;51.414;0.018;2023-01-15T13:21:35;8.30;99.90
42187;DHT22;27858;51.414;0.018;2023-01-15T13:24:18;8.30;99.90
42187;DHT22;27858;51.414;0.018;2023-01-15T13:32:41;8.40;99.90
42187;DHT22;27858;51.414;0.018;2023-01-15T13:35:29;8.50;99.90
42187;DHT22;27858;51.414;0.018;2023-01-15T13:37:59;8.50;99.90
42187;DHT22;27858;51.414;0.018;2023-01-15T13:40:38;8.60;99.90
42187;DHT22;27858;51.414;0.018;2023-01-15T13:43:07;8.70;99.90
42187;DHT22;27858;51.414;0.018;2023-01-15T13:45:42;8.60;99.90
42187;DHT22;27858;51.414;0.018;2023-01-15T13:48:18;8.60;99.90
42187;DHT22;27858;51.414;0.018;2023-01-15T13:50:55;8.70;99.90
42187;DHT22;27858;51.414;0.018;2023-01-15T13:53:31;8.60;99.90
42187;DHT22;27858;51.414;0.018;2023-01-15T13:56:08;8.60;99.90
42187;DHT22;27858;51.414;0.018;2023-01-15T14:06:48;8.50;99.90
42187;DHT22;27858;51.414;0.018;2023-01-15T14:31:22;8.20;99.90
42187;DHT22;27858;51.414;0.018;2023-01-15T14:36:29;8.10;99.90
42187;DHT22;27858;51.414;0.018;2023-01-15T14:39:01;8.10;99.90
42187;DHT22;27858;51.414;0.018;2023-01-15T14:41:34;8.10;99.90
42187;DHT22;27858;51.414;0.018;2023-01-15T14:44:29;8.00;99.90
42187;DHT22;27858;51.414;0.018;2023-01-15T14:46:58;7.90;99.90
42187;DHT22;27858;51.414;0.018;2023-01-15T14:49:29;7.90;99.90
42187;DHT22;27858;51.414;0.018;2023-01-15T14:51:57;7.80;99.90
42187;DHT22;27858;51.414;0.018;2023-01-15T14:54:24;7.80;99.90
42187;DHT22;27858;51.414;0.018;2023-01-15T14:56:55;7.70;99.90
42187;DHT22;27858;51.414;0.018;2023-01-15T14:59:26;7.70;99.90
42187;DHT22;27858;51.414;0.018;2023-01-15T15:01:57;7.70;99.90
42187;DHT22;27858;51.414;0.018;2023-01-15T15:07:06;7.80;99.90
42187;DHT22;27858;51.414;0.018;2023-01-15T15:12:41;8.00;99.90
42187;DHT22;27858;51.414;0.018;2023-01-15T15:20:59;8.00;99.90
42187;DHT22;27858;51.414;0.018;2023-01-15T15:26:14;7.90;99.90
42187;DHT22;27858;51.414;0.018;2023-01-15T15:28:53;7.80;99.90
42187;DHT22;27858;51.414;0.018;2023-01-15T15:31:21;7.70;99.90
42187;DHT22;27858;51.414;0.018;2023-01-15T15:33:55;7.60;99.90
42187;DHT22;27858;51.414;0.018;2023-01-15T15:36:24;7.60;99.90
42187;DHT22;27858;51.414;0.018;2023-01-15T15:39:03;7.50;99.90
42187;DHT22;27858;51.414;0.018;2023-01-15T15:41:32;7.40;99.90
42187;DHT22;27858;51.414;0.018;2023-01-15T15:44:33;7.40;99.90
42187;DHT22;27858;51.414;0.018;2023-01-15T15:47:23;7.40;99.90
42187;DHT22;27858;51.414;0.018;2023-01-15T15:50:39;7.30;99.90
42187;DHT22;27858;51.414;0.018;2023-01-15T15:53:14;7.20;99.90
42187;DHT22;27858;51.414;0.018;2023-01-15T15:55:43;7.20;99.90
42187;DHT22;27858;51.414;0.018;2023-01-15T16:00:48;7.10;99.90
42187;DHT22;27858;51.414;0.018;2023-01-15T16:03:19;7.10;99.90
42187;DHT22;27858;51.414;0.018;2023-01-15T16:06:06;7.00;99.90
42187;DHT22;27858;51.414;0.018;2023-01-15T16:08:34;7.10;99.90
42187;DHT22;27858;51.414;0.018;2023-01-15T16:11:04;7.00;99.90
42187;DHT22;27858;51.414;0.018;2023-01-15T16:13:36;6.90;99.90
42187;DHT22;27858;51.414;0.018;2023-01-15T16:16:04;6.90;99.90
42187;DHT22;27858;51.414;0.018;2023-01-15T16:21:04;6.80;99.90
42187;DHT22;27858;51.414;0.018;2023-01-15T16:23:30;6.80;99.90
42187;DHT22;27858;51.414;0.018;2023-01-15T16:26:21;6.80;99.90
42187;DHT22;27858;51.414;0.018;2023-01-15T16:28:53;6.80;99.90
42187;DHT22;27858;51.414;0.018;2023-01-15T16:31:21;6.70;99.90
42187;DHT22;27858;51.414;0.018;2023-01-15T16:33:57;6.70;99.90
42187;DHT22;27858;51.414;0.018;2023-01-15T16:36:26;6.70;99.90
42187;DHT22;27858;51.414;0.018;2023-01-15T16:38:54;6.60;1.00
42187;DHT22;27858;51.414;0.018;2023-01-15T16:41:39;6.60;1.00
42187;DHT22;27858;51.414;0.018;2023-01-15T16:44:24;6.60;1.00
42187;DHT22;27858;51.414;0.018;2023-01-15T16:46:56;6.50;1.00
42187;DHT22;27858;51.414;0.018;2023-01-15T16:49:27;6.50;1.00
42187;DHT22;27858;51.414;0.018;2023-01-15T16:51:56;6.40;1.00
42187;DHT22;27858;51.414;0.018;2023-01-15T16:56:58;6.30;1.00
42187;DHT22;27858;51.414;0.018;2023-01-15T17:04:34;6.30;1.00
42187;DHT22;27858;51.414;0.018;2023-01-15T17:09:51;6.20;1.00
42187;DHT22;27858;51.414;0.018;2023-01-15T17:12:30;6.20;1.00
42187;DHT22;27858;51.414;0.018;2023-01-15T17:17:46;6.20;1.00
42187;DHT22;27858;51.414;0.018;2023-01-15T17:20:14;6.20;1.00
42187;DHT22;27858;51.414;0.018;2023-01-15T17:22:43;6.20;1.00
42187;DHT22;27858;51.414;0.018;2023-01-15T17:25:30;6.10;1.00
42187;DHT22;27858;51.414;0.018;2023-01-15T17:27:58;6.10;1.00
42187;DHT22;27858;51.414;0.018;2023-01-15T17:30:26;6.10;1.00
42187;DHT22;27858;51.414;0.018;2023-01-15T17:32:57;6.00;1.00
42187;DHT22;27858;51.414;0.018;2023-01-15T17:35:25;5.90;1.00
42187;DHT22;27858;51.414;0.018;2023-01-15T17:37:53;5.90;1.00
42187;DHT22;27858;51.414;0.018;2023-01-15T17:40:20;5.80;1.00
42187;DHT22;27858;51.414;0.018;2023-01-15T17:42:47;5.80;1.00
42187;DHT22;27858;51.414;0.018;2023-01-15T17:45:23;5.70;2.90
42187;DHT22;27858;51.414;0.018;2023-01-15T17:47:50;5.70;8.20
42187;DHT22;27858;51.414;0.018;2023-01-15T17:50:17;5.70;11.90
42187;DHT22;27858;51.414;0.018;2023-01-15T17:52:45;5.60;16.90
42187;DHT22;27858;51.414;0.018;2023-01-15T17:55:14;5.60;20.40
42187;DHT22;27858;51.414;0.018;2023-01-15T17:58:00;5.60;21.90
42187;DHT22;27858;51.414;0.018;2023-01-15T18:00:47;5.60;25.20
42187;DHT22;27858;51.414;0.018;2023-01-15T18:03:32;5.50;28.60
42187;DHT22;27858;51.414;0.018;2023-01-15T18:06:20;5.50;34.20
42187;DHT22;27858;51.414;0.018;2023-01-15T18:08:52;5.40;39.20
42187;DHT22;27858;51.414;0.018;2023-01-15T18:11:20;5.50;41.80
42187;DHT22;27858;51.414;0.018;2023-01-15T18:13:47;5.40;45.40
42187;DHT22;27858;51.414;0.018;2023-01-15T18:16:14;5.50;47.10
42187;DHT22;27858;51.414;0.018;2023-01-15T18:18:42;5.40;50.10
42187;DHT22;27858;51.414;0.018;2023-01-15T18:21:09;5.40;54.20
42187;DHT22;27858;51.414;0.018;2023-01-15T18:23:36;5.50;57.40
42187;DHT22;27858;51.414;0.018;2023-01-15T18:26:06;5.50;59.30
42187;DHT22;27858;51.414;0.018;2023-01-15T18:28:34;5.40;64.10
42187;DHT22;27858;51.414;0.018;2023-01-15T18:31:02;5.40;68.00
42187;DHT22;27858;51.414;0.018;2023-01-15T18:33:29;5.40;72.00
42187;DHT22;27858;51.414;0.018;2023-01-15T18:36:05;5.40;76.50
42187;DHT22;27858;51.414;0.018;2023-01-15T18:38:34;5.40;81.00
42187;DHT22;27858;51.414;0.018;2023-01-15T18:41:10;5.40;83.90
42187;DHT22;27858;51.414;0.018;2023-01-15T18:43:37;5.40;81.50